sensor_id;sensor_type;location;lat;lon;timestamp;P1;durP1;ratioP1;P2;durP2;ratioP2
24485;SDS011;13449;49.374;8.584;2023-05-10T00:01:38;0.43;;;0.43;;
24485;SDS011;13449;49.374;8.584;2023-05-10T00:04:04;0.55;;;0.40;;
24485;SDS011;13449;49.374;8.584;2023-05-10T00:06:33;0.40;;;0.40;;
24485;SDS011;13449;49.374;8.584;2023-05-10T00:09:02;0.70;;;0.40;;
24485;SDS011;13449;49.374;8.584;2023-05-10T00:11:31;2.70;;;0.70;;
24485;SDS011;13449;49.374;8.584;2023-05-10T00:13:57;2.72;;;0.63;;
24485;SDS011;13449;49.374;8.584;2023-05-10T00:16:24;0.38;;;0.38;;
24485;SDS011;13449;49.374;8.584;2023-05-10T00:18:51;0.35;;;0.35;;
24485;SDS011;13449;49.374;8.584;2023-05-10T00:21:17;0.60;;;0.32;;
24485;SDS011;13449;49.374;8.584;2023-05-10T00:23:46;0.80;;;0.77;;
24485;SDS011;13449;49.374;8.584;2023-05-10T00:26:12;0.50;;;0.32;;
24485;SDS011;13449;49.374;8.584;2023-05-10T00:28:39;1.75;;;0.63;;
24485;SDS011;13449;49.374;8.584;2023-05-10T00:31:05;1.75;;;0.30;;
24485;SDS011;13449;49.374;8.584;2023-05-10T00:33:32;0.70;;;0.35;;
24485;SDS011;13449;49.374;8.584;2023-05-10T00:35:58;0.55;;;0.40;;
24485;SDS011;13449;49.374;8.584;2023-05-10T00:38:27;0.30;;;0.30;;
24485;SDS011;13449;49.374;8.584;2023-05-10T00:40:54;1.58;;;0.50;;
24485;SDS011;13449;49.374;8.584;2023-05-10T00:43:22;0.40;;;0.40;;
24485;SDS011;13449;49.374;8.584;2023-05-10T00:45:49;0.52;;;0.35;;
24485;SDS011;13449;49.374;8.584;2023-05-10T00:48:16;1.17;;;0.50;;
24485;SDS011;13449;49.374;8.584;2023-05-10T00:50:42;0.63;;;0.35;;
24485;SDS011;13449;49.374;8.584;2023-05-10T00:53:11;0.70;;;0.40;;
24485;SDS011;13449;49.374;8.584;2023-05-10T00:55:38;0.50;;;0.50;;
24485;SDS011;13449;49.374;8.584;2023-05-10T00:58:05;0.55;;;0.40;;
24485;SDS011;13449;49.374;8.584;2023-05-10T01:00:32;3.08;;;0.43;;
24485;SDS011;13449;49.374;8.584;2023-05-10T01:02:59;0.98;;;0.50;;
24485;SDS011;13449;49.374;8.584;2023-05-10T01:05:26;1.90;;;0.40;;
24485;SDS011;13449;49.374;8.584;2023-05-10T01:07:53;5.25;;;0.40;;
24485;SDS011;13449;49.374;8.584;2023-05-10T01:10:20;0.30;;;0.30;;
24485;SDS011;13449;49.374;8.584;2023-05-10T01:12:49;0.45;;;0.40;;
24485;SDS011;13449;49.374;8.584;2023-05-10T01:15:18;3.05;;;0.50;;
24485;SDS011;13449;49.374;8.584;2023-05-10T01:17:48;6.03;;;0.65;;
24485;SDS011;13449;49.374;8.584;2023-05-10T01:20:15;6.68;;;0.60;;
24485;SDS011;13449;49.374;8.584;2023-05-10T01:34:08;5.85;;;0.40;;
24485;SDS011;13449;49.374;8.584;2023-05-10T01:40:17;0.80;;;0.60;;
24485;SDS011;13449;49.374;8.584;2023-05-10T01:42:30;0.35;;;0.35;;
24485;SDS011;13449;49.374;8.584;2023-05-10T01:45:18;1.33;;;0.50;;
24485;SDS011;13449;49.374;8.584;2023-05-10T01:48:08;1.17;;;0.40;;
24485;SDS011;13449;49.374;8.584;2023-05-10T01:50:37;11.40;;;0.60;;
24485;SDS011;13449;49.374;8.584;2023-05-10T01:53:06;0.63;;;0.43;;
24485;SDS011;13449;49.374;8.584;2023-05-10T01:55:36;0.73;;;0.40;;
24485;SDS011;13449;49.374;8.584;2023-05-10T01:58:13;0.45;;;0.45;;
24485;SDS011;13449;49.374;8.584;2023-05-10T02:00:44;0.55;;;0.32;;
24485;SDS011;13449;49.374;8.584;2023-05-10T02:03:12;0.82;;;0.50;;
24485;SDS011;13449;49.374;8.584;2023-05-10T02:05:41;0.50;;;0.50;;
24485;SDS011;13449;49.374;8.584;2023-05-10T02:08:12;0.93;;;0.70;;
24485;SDS011;13449;49.374;8.584;2023-05-10T02:10:41;1.20;;;0.60;;
24485;SDS011;13449;49.374;8.584;2023-05-10T02:13:09;1.40;;;0.65;;
24485;SDS011;13449;49.374;8.584;2023-05-10T02:15:40;1.93;;;1.17;;
24485;SDS011;13449;49.374;8.584;2023-05-10T02:18:07;0.73;;;0.73;;
24485;SDS011;13449;49.374;8.584;2023-05-10T02:20:36;1.17;;;0.95;;
24485;SDS011;13449;49.374;8.584;2023-05-10T02:23:04;1.67;;;0.88;;
24485;SDS011;13449;49.374;8.584;2023-05-10T02:25:32;1.35;;;0.80;;
24485;SDS011;13449;49.374;8.584;2023-05-10T02:27:59;1.08;;;0.93;;
24485;SDS011;13449;49.374;8.584;2023-05-10T02:30:31;2.92;;;1.00;;
24485;SDS011;13449;49.374;8.584;2023-05-10T02:33:04;2.47;;;0.50;;
24485;SDS011;13449;49.374;8.584;2023-05-10T02:35:31;5.60;;;0.70;;
24485;SDS011;13449;49.374;8.584;2023-05-10T02:38:02;11.63;;;0.82;;
24485;SDS011;13449;49.374;8.584;2023-05-10T02:40:30;1.25;;;0.70;;
24485;SDS011;13449;49.374;8.584;2023-05-10T02:42:59;4.55;;;0.75;;
24485;SDS011;13449;49.374;8.584;2023-05-10T02:45:29;0.77;;;0.77;;
24485;SDS011;13449;49.374;8.584;2023-05-10T02:47:58;1.10;;;0.95;;
24485;SDS011;13449;49.374;8.584;2023-05-10T02:50:25;0.77;;;0.77;;
24485;SDS011;13449;49.374;8.584;2023-05-10T02:52:56;0.80;;;0.70;;
24485;SDS011;13449;49.374;8.584;2023-05-10T02:55:32;1.77;;;0.60;;
24485;SDS011;13449;49.374;8.584;2023-05-10T02:58:02;0.73;;;0.73;;
24485;SDS011;13449;49.374;8.584;2023-05-10T03:00:32;0.90;;;0.85;;
24485;SDS011;13449;49.374;8.584;2023-05-10T03:03:01;1.95;;;1.00;;
24485;SDS011;13449;49.374;8.584;2023-05-10T03:05:28;4.85;;;1.10;;
24485;SDS011;13449;49.374;8.584;2023-05-10T03:07:54;7.28;;;1.42;;
24485;SDS011;13449;49.374;8.584;2023-05-10T03:10:26;6.10;;;1.70;;
24485;SDS011;13449;49.374;8.584;2023-05-10T03:15:39;2.17;;;1.70;;
24485;SDS011;13449;49.374;8.584;2023-05-10T03:18:15;4.40;;;1.63;;
24485;SDS011;13449;49.374;8.584;2023-05-10T03:21:03;3.90;;;1.98;;
24485;SDS011;13449;49.374;8.584;2023-05-10T03:23:34;8.88;;;3.40;;
24485;SDS011;13449;49.374;8.584;2023-05-10T03:26:07;3.92;;;2.58;;
24485;SDS011;13449;49.374;8.584;2023-05-10T03:28:34;2.58;;;2.22;;
24485;SDS011;13449;49.374;8.584;2023-05-10T03:31:02;2.30;;;2.10;;
24485;SDS011;13449;49.374;8.584;2023-05-10T03:33:31;2.55;;;2.35;;
24485;SDS011;13449;49.374;8.584;2023-05-10T03:35:58;4.38;;;2.22;;
24485;SDS011;13449;49.374;8.584;2023-05-10T03:38:24;6.70;;;2.70;;
24485;SDS011;13449;49.374;8.584;2023-05-10T03:40:51;7.18;;;2.80;;
24485;SDS011;13449;49.374;8.584;2023-05-10T03:43:17;2.63;;;2.30;;
24485;SDS011;13449;49.374;8.584;2023-05-10T03:45:44;5.70;;;1.70;;
24485;SDS011;13449;49.374;8.584;2023-05-10T03:48:13;2.47;;;2.28;;
24485;SDS011;13449;49.374;8.584;2023-05-10T03:50:40;1.88;;;1.65;;
24485;SDS011;13449;49.374;8.584;2023-05-10T03:53:06;2.53;;;1.85;;
24485;SDS011;13449;49.374;8.584;2023-05-10T03:55:32;4.22;;;2.10;;
24485;SDS011;13449;49.374;8.584;2023-05-10T03:58:02;3.10;;;1.98;;
24485;SDS011;13449;49.374;8.584;2023-05-10T04:00:28;6.03;;;1.58;;
24485;SDS011;13449;49.374;8.584;2023-05-10T04:02:55;1.75;;;1.45;;
24485;SDS011;13449;49.374;8.584;2023-05-10T04:05:21;2.45;;;2.15;;
24485;SDS011;13449;49.374;8.584;2023-05-10T04:07:50;7.43;;;1.92;;
24485;SDS011;13449;49.374;8.584;2023-05-10T04:10:17;3.05;;;2.08;;
24485;SDS011;13449;49.374;8.584;2023-05-10T04:12:44;2.20;;;1.80;;
24485;SDS011;13449;49.374;8.584;2023-05-10T04:15:10;2.33;;;2.13;;
24485;SDS011;13449;49.374;8.584;2023-05-10T04:17:37;5.57;;;2.22;;
24485;SDS011;13449;49.374;8.584;2023-05-10T04:20:04;2.40;;;2.20;;
24485;SDS011;13449;49.374;8.584;2023-05-10T04:22:31;2.17;;;1.98;;
24485;SDS011;13449;49.374;8.584;2023-05-10T04:24:58;2.22;;;2.03;;
24485;SDS011;13449;49.374;8.584;2023-05-10T04:27:24;2.60;;;2.35;;
24485;SDS011;13449;49.374;8.584;2023-05-10T04:29:51;5.50;;;2.15;;
24485;SDS011;13449;49.374;8.584;2023-05-10T04:32:17;2.08;;;1.73;;
24485;SDS011;13449;49.374;8.584;2023-05-10T04:34:47;2.50;;;2.30;;
24485;SDS011;13449;49.374;8.584;2023-05-10T04:37:13;2.25;;;2.08;;
24485;SDS011;13449;49.374;8.584;2023-05-10T04:39:40;3.08;;;2.67;;
24485;SDS011;13449;49.374;8.584;2023-05-10T04:42:07;2.70;;;2.50;;
24485;SDS011;13449;49.374;8.584;2023-05-10T04:44:34;2.17;;;2.03;;
24485;SDS011;13449;49.374;8.584;2023-05-10T04:47:01;3.80;;;2.55;;
24485;SDS011;13449;49.374;8.584;2023-05-10T04:49:29;7.28;;;2.95;;
24485;SDS011;13449;49.374;8.584;2023-05-10T04:51:55;2.65;;;2.45;;
24485;SDS011;13449;49.374;8.584;2023-05-10T04:54:24;7.28;;;3.10;;
24485;SDS011;13449;49.374;8.584;2023-05-10T04:56:51;2.42;;;2.22;;
24485;SDS011;13449;49.374;8.584;2023-05-10T04:59:17;3.53;;;2.88;;
24485;SDS011;13449;49.374;8.584;2023-05-10T05:01:46;7.18;;;3.60;;
24485;SDS011;13449;49.374;8.584;2023-05-10T05:04:13;9.95;;;3.70;;
24485;SDS011;13449;49.374;8.584;2023-05-10T05:06:40;7.97;;;3.10;;
24485;SDS011;13449;49.374;8.584;2023-05-10T05:09:07;3.58;;;3.28;;
24485;SDS011;13449;49.374;8.584;2023-05-10T05:11:36;4.22;;;3.83;;
24485;SDS011;13449;49.374;8.584;2023-05-10T05:14:02;4.68;;;3.30;;
24485;SDS011;13449;49.374;8.584;2023-05-10T05:16:30;4.40;;;3.33;;
24485;SDS011;13449;49.374;8.584;2023-05-10T05:18:57;8.63;;;3.97;;
24485;SDS011;13449;49.374;8.584;2023-05-10T05:21:23;3.55;;;3.08;;
24485;SDS011;13449;49.374;8.584;2023-05-10T05:23:51;9.60;;;3.28;;
24485;SDS011;13449;49.374;8.584;2023-05-10T05:26:17;4.18;;;3.13;;
24485;SDS011;13449;49.374;8.584;2023-05-10T05:28:44;12.13;;;4.00;;
24485;SDS011;13449;49.374;8.584;2023-05-10T05:31:10;4.10;;;3.28;;
24485;SDS011;13449;49.374;8.584;2023-05-10T05:33:38;18.35;;;3.97;;
24485;SDS011;13449;49.374;8.584;2023-05-10T05:36:04;6.50;;;3.80;;
24485;SDS011;13449;49.374;8.584;2023-05-10T05:38:31;4.35;;;3.95;;
24485;SDS011;13449;49.374;8.584;2023-05-10T05:40:58;3.80;;;3.30;;
24485;SDS011;13449;49.374;8.584;2023-05-10T05:43:24;11.32;;;4.57;;
24485;SDS011;13449;49.374;8.584;2023-05-10T05:45:54;10.15;;;3.65;;
24485;SDS011;13449;49.374;8.584;2023-05-10T05:48:24;8.27;;;4.05;;
24485;SDS011;13449;49.374;8.584;2023-05-10T05:50:53;6.22;;;4.47;;
24485;SDS011;13449;49.374;8.584;2023-05-10T05:53:21;4.90;;;3.90;;
24485;SDS011;13449;49.374;8.584;2023-05-10T05:55:51;4.68;;;4.25;;
24485;SDS011;13449;49.374;8.584;2023-05-10T05:58:21;6.80;;;3.88;;
24485;SDS011;13449;49.374;8.584;2023-05-10T06:00:48;7.85;;;3.83;;
24485;SDS011;13449;49.374;8.584;2023-05-10T06:03:15;5.07;;;3.92;;
24485;SDS011;13449;49.374;8.584;2023-05-10T06:05:41;6.32;;;3.90;;
24485;SDS011;13449;49.374;8.584;2023-05-10T06:08:08;5.75;;;4.00;;
24485;SDS011;13449;49.374;8.584;2023-05-10T06:10:35;10.18;;;4.18;;
24485;SDS011;13449;49.374;8.584;2023-05-10T06:13:02;5.40;;;4.35;;
24485;SDS011;13449;49.374;8.584;2023-05-10T06:15:28;12.00;;;4.25;;
24485;SDS011;13449;49.374;8.584;2023-05-10T06:17:58;6.53;;;4.47;;
24485;SDS011;13449;49.374;8.584;2023-05-10T06:20:25;4.97;;;3.85;;
24485;SDS011;13449;49.374;8.584;2023-05-10T06:22:52;5.03;;;4.10;;
24485;SDS011;13449;49.374;8.584;2023-05-10T06:25:18;7.15;;;4.13;;
24485;SDS011;13449;49.374;8.584;2023-05-10T06:27:45;11.75;;;4.25;;
24485;SDS011;13449;49.374;8.584;2023-05-10T06:30:17;10.43;;;3.70;;
24485;SDS011;13449;49.374;8.584;2023-05-10T06:32:44;5.03;;;4.25;;
24485;SDS011;13449;49.374;8.584;2023-05-10T06:35:11;6.53;;;3.70;;
24485;SDS011;13449;49.374;8.584;2023-05-10T06:37:38;5.70;;;4.30;;
24485;SDS011;13449;49.374;8.584;2023-05-10T06:40:05;4.65;;;3.72;;
24485;SDS011;13449;49.374;8.584;2023-05-10T06:42:32;10.32;;;3.58;;
24485;SDS011;13449;49.374;8.584;2023-05-10T06:44:59;6.45;;;3.50;;
24485;SDS011;13449;49.374;8.584;2023-05-10T06:47:25;9.73;;;3.67;;
24485;SDS011;13449;49.374;8.584;2023-05-10T06:49:52;5.07;;;3.88;;
24485;SDS011;13449;49.374;8.584;2023-05-10T06:52:18;5.55;;;3.58;;
24485;SDS011;13449;49.374;8.584;2023-05-10T06:54:45;10.30;;;3.95;;
24485;SDS011;13449;49.374;8.584;2023-05-10T06:57:16;5.50;;;4.00;;
24485;SDS011;13449;49.374;8.584;2023-05-10T06:59:56;8.50;;;3.78;;
24485;SDS011;13449;49.374;8.584;2023-05-10T07:02:24;6.90;;;3.40;;
24485;SDS011;13449;49.374;8.584;2023-05-10T07:04:51;8.95;;;3.80;;
24485;SDS011;13449;49.374;8.584;2023-05-10T07:07:18;5.22;;;3.70;;
24485;SDS011;13449;49.374;8.584;2023-05-10T07:09:45;6.63;;;3.10;;
24485;SDS011;13449;49.374;8.584;2023-05-10T07:12:11;4.90;;;3.70;;
24485;SDS011;13449;49.374;8.584;2023-05-10T07:14:41;7.85;;;3.72;;
24485;SDS011;13449;49.374;8.584;2023-05-10T07:17:08;3.80;;;2.88;;
24485;SDS011;13449;49.374;8.584;2023-05-10T07:19:35;13.40;;;5.72;;
24485;SDS011;13449;49.374;8.584;2023-05-10T07:22:02;3.63;;;2.40;;
24485;SDS011;13449;49.374;8.584;2023-05-10T07:24:28;3.65;;;3.00;;
24485;SDS011;13449;49.374;8.584;2023-05-10T07:26:57;2.47;;;2.28;;
24485;SDS011;13449;49.374;8.584;2023-05-10T07:29:23;8.20;;;2.72;;
24485;SDS011;13449;49.374;8.584;2023-05-10T07:31:52;9.73;;;2.30;;
24485;SDS011;13449;49.374;8.584;2023-05-10T07:34:22;1.95;;;1.60;;
24485;SDS011;13449;49.374;8.584;2023-05-10T07:36:48;6.30;;;1.80;;
24485;SDS011;13449;49.374;8.584;2023-05-10T07:39:15;1.80;;;1.70;;
24485;SDS011;13449;49.374;8.584;2023-05-10T07:41:52;2.10;;;1.90;;
24485;SDS011;13449;49.374;8.584;2023-05-10T07:44:19;1.65;;;1.55;;
24485;SDS011;13449;49.374;8.584;2023-05-10T07:46:48;7.68;;;1.42;;
24485;SDS011;13449;49.374;8.584;2023-05-10T07:49:15;4.78;;;1.30;;
24485;SDS011;13449;49.374;8.584;2023-05-10T07:51:41;2.15;;;1.55;;
24485;SDS011;13449;49.374;8.584;2023-05-10T07:54:08;2.60;;;1.17;;
24485;SDS011;13449;49.374;8.584;2023-05-10T07:56:35;6.93;;;1.45;;
24485;SDS011;13449;49.374;8.584;2023-05-10T07:59:05;1.13;;;0.85;;
24485;SDS011;13449;49.374;8.584;2023-05-10T08:01:35;1.23;;;0.80;;
24485;SDS011;13449;49.374;8.584;2023-05-10T08:04:02;8.50;;;1.30;;
24485;SDS011;13449;49.374;8.584;2023-05-10T08:06:29;1.13;;;1.02;;
24485;SDS011;13449;49.374;8.584;2023-05-10T08:08:56;1.83;;;1.13;;
24485;SDS011;13449;49.374;8.584;2023-05-10T08:11:23;0.60;;;0.55;;
24485;SDS011;13449;49.374;8.584;2023-05-10T08:13:56;0.98;;;0.88;;
24485;SDS011;13449;49.374;8.584;2023-05-10T08:16:22;1.20;;;0.90;;
24485;SDS011;13449;49.374;8.584;2023-05-10T08:18:49;0.88;;;0.82;;
24485;SDS011;13449;49.374;8.584;2023-05-10T08:21:19;0.85;;;0.70;;
24485;SDS011;13449;49.374;8.584;2023-05-10T08:23:45;1.15;;;1.00;;
24485;SDS011;13449;49.374;8.584;2023-05-10T08:26:13;2.75;;;0.90;;
24485;SDS011;13449;49.374;8.584;2023-05-10T08:28:40;0.80;;;0.80;;
24485;SDS011;13449;49.374;8.584;2023-05-10T08:31:06;0.73;;;0.73;;
24485;SDS011;13449;49.374;8.584;2023-05-10T08:33:33;4.55;;;0.80;;
24485;SDS011;13449;49.374;8.584;2023-05-10T08:35:59;0.73;;;0.73;;
24485;SDS011;13449;49.374;8.584;2023-05-10T08:38:26;1.08;;;0.57;;
24485;SDS011;13449;49.374;8.584;2023-05-10T08:40:54;6.50;;;0.90;;
24485;SDS011;13449;49.374;8.584;2023-05-10T08:43:27;2.55;;;0.70;;
24485;SDS011;13449;49.374;8.584;2023-05-10T08:45:55;2.25;;;0.55;;
24485;SDS011;13449;49.374;8.584;2023-05-10T08:48:23;1.50;;;0.82;;
24485;SDS011;13449;49.374;8.584;2023-05-10T08:50:52;0.50;;;0.50;;
24485;SDS011;13449;49.374;8.584;2023-05-10T08:55:51;2.67;;;0.68;;
24485;SDS011;13449;49.374;8.584;2023-05-10T08:58:18;1.02;;;0.70;;
24485;SDS011;13449;49.374;8.584;2023-05-10T09:00:46;4.25;;;0.95;;
24485;SDS011;13449;49.374;8.584;2023-05-10T09:03:14;0.45;;;0.45;;
24485;SDS011;13449;49.374;8.584;2023-05-10T09:05:41;1.33;;;0.60;;
24485;SDS011;13449;49.374;8.584;2023-05-10T09:08:08;2.25;;;0.63;;
24485;SDS011;13449;49.374;8.584;2023-05-10T09:10:35;5.32;;;0.65;;
24485;SDS011;13449;49.374;8.584;2023-05-10T09:13:03;0.40;;;0.40;;
24485;SDS011;13449;49.374;8.584;2023-05-10T09:15:31;11.18;;;0.70;;
24485;SDS011;13449;49.374;8.584;2023-05-10T09:17:57;0.82;;;0.82;;
24485;SDS011;13449;49.374;8.584;2023-05-10T09:20:25;1.92;;;1.02;;
24485;SDS011;13449;49.374;8.584;2023-05-10T09:22:53;4.25;;;0.82;;
24485;SDS011;13449;49.374;8.584;2023-05-10T09:25:21;1.67;;;0.52;;
24485;SDS011;13449;49.374;8.584;2023-05-10T09:27:51;2.20;;;0.77;;
24485;SDS011;13449;49.374;8.584;2023-05-10T09:30:25;0.60;;;0.60;;
24485;SDS011;13449;49.374;8.584;2023-05-10T09:32:54;0.50;;;0.50;;
24485;SDS011;13449;49.374;8.584;2023-05-10T09:35:22;0.95;;;0.73;;
24485;SDS011;13449;49.374;8.584;2023-05-10T09:37:55;0.40;;;0.40;;
24485;SDS011;13449;49.374;8.584;2023-05-10T09:40:26;1.27;;;0.52;;
24485;SDS011;13449;49.374;8.584;2023-05-10T09:42:54;1.05;;;0.80;;
24485;SDS011;13449;49.374;8.584;2023-05-10T09:45:23;1.42;;;0.70;;
24485;SDS011;13449;49.374;8.584;2023-05-10T09:47:51;2.53;;;1.65;;
24485;SDS011;13449;49.374;8.584;2023-05-10T09:50:18;2.40;;;0.85;;
24485;SDS011;13449;49.374;8.584;2023-05-10T09:52:47;1.25;;;0.60;;
24485;SDS011;13449;49.374;8.584;2023-05-10T09:55:23;5.25;;;1.30;;
24485;SDS011;13449;49.374;8.584;2023-05-10T09:58:02;2.63;;;1.58;;
24485;SDS011;13449;49.374;8.584;2023-05-10T10:00:33;5.43;;;1.70;;
24485;SDS011;13449;49.374;8.584;2023-05-10T10:03:02;9.88;;;4.00;;
24485;SDS011;13449;49.374;8.584;2023-05-10T10:05:35;3.42;;;1.48;;
24485;SDS011;13449;49.374;8.584;2023-05-10T10:08:05;1.10;;;0.50;;
24485;SDS011;13449;49.374;8.584;2023-05-10T10:10:32;0.35;;;0.30;;
24485;SDS011;13449;49.374;8.584;2023-05-10T10:13:02;3.83;;;0.50;;
24485;SDS011;13449;49.374;8.584;2023-05-10T10:15:29;2.15;;;0.68;;
24485;SDS011;13449;49.374;8.584;2023-05-10T10:17:56;2.38;;;0.88;;
24485;SDS011;13449;49.374;8.584;2023-05-10T10:20:22;1.92;;;1.52;;
24485;SDS011;13449;49.374;8.584;2023-05-10T10:22:50;0.77;;;0.77;;
24485;SDS011;13449;49.374;8.584;2023-05-10T10:25:17;3.10;;;0.90;;
24485;SDS011;13449;49.374;8.584;2023-05-10T10:35:42;7.88;;;3.63;;
24485;SDS011;13449;49.374;8.584;2023-05-10T10:38:10;4.18;;;0.80;;
24485;SDS011;13449;49.374;8.584;2023-05-10T10:40:39;1.10;;;0.70;;
24485;SDS011;13449;49.374;8.584;2023-05-10T10:43:22;4.57;;;0.50;;
24485;SDS011;13449;49.374;8.584;2023-05-10T10:46:14;2.25;;;0.50;;
24485;SDS011;13449;49.374;8.584;2023-05-10T10:49:08;1.48;;;0.60;;
24485;SDS011;13449;49.374;8.584;2023-05-10T10:51:37;0.57;;;0.30;;
24485;SDS011;13449;49.374;8.584;2023-05-10T10:54:10;1.83;;;0.30;;
24485;SDS011;13449;49.374;8.584;2023-05-10T10:57:11;3.35;;;0.55;;
24485;SDS011;13449;49.374;8.584;2023-05-10T10:59:42;1.35;;;0.70;;
24485;SDS011;13449;49.374;8.584;2023-05-10T11:02:10;0.80;;;0.70;;
24485;SDS011;13449;49.374;8.584;2023-05-10T11:04:42;5.15;;;0.50;;
24485;SDS011;13449;49.374;8.584;2023-05-10T11:07:15;0.38;;;0.38;;
24485;SDS011;13449;49.374;8.584;2023-05-10T11:09:42;2.75;;;0.45;;
24485;SDS011;13449;49.374;8.584;2023-05-10T11:12:12;2.85;;;1.70;;
24485;SDS011;13449;49.374;8.584;2023-05-10T11:14:39;3.40;;;1.85;;
24485;SDS011;13449;49.374;8.584;2023-05-10T11:17:25;0.73;;;0.65;;
24485;SDS011;13449;49.374;8.584;2023-05-10T11:20:09;8.27;;;1.15;;
24485;SDS011;13449;49.374;8.584;2023-05-10T11:22:49;3.42;;;0.77;;
24485;SDS011;13449;49.374;8.584;2023-05-10T11:25:20;5.35;;;0.68;;
24485;SDS011;13449;49.374;8.584;2023-05-10T11:27:52;1.70;;;0.40;;
24485;SDS011;13449;49.374;8.584;2023-05-10T11:30:19;2.75;;;0.40;;
24485;SDS011;13449;49.374;8.584;2023-05-10T11:32:46;0.30;;;0.30;;
24485;SDS011;13449;49.374;8.584;2023-05-10T11:35:15;5.28;;;0.40;;
24485;SDS011;13449;49.374;8.584;2023-05-10T11:37:41;1.58;;;0.45;;
24485;SDS011;13449;49.374;8.584;2023-05-10T11:40:09;2.20;;;0.50;;
24485;SDS011;13449;49.374;8.584;2023-05-10T11:42:37;2.13;;;0.40;;
24485;SDS011;13449;49.374;8.584;2023-05-10T11:45:05;3.63;;;1.15;;
24485;SDS011;13449;49.374;8.584;2023-05-10T11:47:37;0.30;;;0.30;;
24485;SDS011;13449;49.374;8.584;2023-05-10T11:50:08;3.42;;;0.32;;
24485;SDS011;13449;49.374;8.584;2023-05-10T11:52:35;1.65;;;0.40;;
24485;SDS011;13449;49.374;8.584;2023-05-10T11:55:07;0.60;;;0.30;;
24485;SDS011;13449;49.374;8.584;2023-05-10T11:57:37;6.25;;;0.40;;
24485;SDS011;13449;49.374;8.584;2023-05-10T12:00:04;1.45;;;0.30;;
24485;SDS011;13449;49.374;8.584;2023-05-10T12:02:32;5.47;;;0.50;;
24485;SDS011;13449;49.374;8.584;2023-05-10T12:04:58;1.15;;;0.45;;
24485;SDS011;13449;49.374;8.584;2023-05-10T12:07:28;3.13;;;0.50;;
24485;SDS011;13449;49.374;8.584;2023-05-10T12:10:11;4.57;;;0.40;;
24485;SDS011;13449;49.374;8.584;2023-05-10T12:12:45;2.03;;;0.50;;
24485;SDS011;13449;49.374;8.584;2023-05-10T12:15:18;4.70;;;0.55;;
24485;SDS011;13449;49.374;8.584;2023-05-10T12:20:19;1.65;;;0.57;;
24485;SDS011;13449;49.374;8.584;2023-05-10T12:22:47;7.18;;;0.50;;
24485;SDS011;13449;49.374;8.584;2023-05-10T12:25:18;8.32;;;1.30;;
24485;SDS011;13449;49.374;8.584;2023-05-10T12:27:48;1.88;;;0.60;;
24485;SDS011;13449;49.374;8.584;2023-05-10T12:30:25;1.80;;;0.50;;
24485;SDS011;13449;49.374;8.584;2023-05-10T12:32:53;2.50;;;0.30;;
24485;SDS011;13449;49.374;8.584;2023-05-10T12:35:25;3.03;;;0.57;;
24485;SDS011;13449;49.374;8.584;2023-05-10T12:37:52;4.97;;;0.50;;
24485;SDS011;13449;49.374;8.584;2023-05-10T12:40:18;2.03;;;0.52;;
24485;SDS011;13449;49.374;8.584;2023-05-10T12:42:46;4.45;;;0.45;;
24485;SDS011;13449;49.374;8.584;2023-05-10T12:45:13;3.47;;;0.50;;
24485;SDS011;13449;49.374;8.584;2023-05-10T12:47:40;2.72;;;0.52;;
24485;SDS011;13449;49.374;8.584;2023-05-10T12:50:09;0.73;;;0.50;;
24485;SDS011;13449;49.374;8.584;2023-05-10T12:52:38;1.17;;;0.47;;
24485;SDS011;13449;49.374;8.584;2023-05-10T12:55:05;9.13;;;0.30;;
24485;SDS011;13449;49.374;8.584;2023-05-10T12:57:32;3.95;;;0.38;;
24485;SDS011;13449;49.374;8.584;2023-05-10T12:59:59;1.95;;;0.40;;
24485;SDS011;13449;49.374;8.584;2023-05-10T13:02:28;1.27;;;0.30;;
24485;SDS011;13449;49.374;8.584;2023-05-10T13:04:57;3.03;;;0.43;;
24485;SDS011;13449;49.374;8.584;2023-05-10T13:07:26;3.28;;;0.43;;
24485;SDS011;13449;49.374;8.584;2023-05-10T13:09:55;0.88;;;0.57;;
24485;SDS011;13449;49.374;8.584;2023-05-10T13:12:21;4.22;;;0.50;;
24485;SDS011;13449;49.374;8.584;2023-05-10T13:14:47;1.90;;;0.40;;
24485;SDS011;13449;49.374;8.584;2023-05-10T13:17:14;0.82;;;0.35;;
24485;SDS011;13449;49.374;8.584;2023-05-10T13:19:41;1.08;;;0.40;;
24485;SDS011;13449;49.374;8.584;2023-05-10T13:22:07;0.50;;;0.35;;
24485;SDS011;13449;49.374;8.584;2023-05-10T13:24:34;0.35;;;0.20;;
24485;SDS011;13449;49.374;8.584;2023-05-10T13:27:05;1.27;;;0.40;;
24485;SDS011;13449;49.374;8.584;2023-05-10T13:29:35;0.43;;;0.20;;
24485;SDS011;13449;49.374;8.584;2023-05-10T13:32:01;0.68;;;0.28;;
24485;SDS011;13449;49.374;8.584;2023-05-10T13:34:28;2.15;;;0.40;;
24485;SDS011;13449;49.374;8.584;2023-05-10T13:36:54;2.13;;;0.63;;
24485;SDS011;13449;49.374;8.584;2023-05-10T13:39:24;5.93;;;0.47;;
24485;SDS011;13449;49.374;8.584;2023-05-10T13:41:53;2.45;;;0.20;;
24485;SDS011;13449;49.374;8.584;2023-05-10T13:44:20;1.45;;;0.50;;
24485;SDS011;13449;49.374;8.584;2023-05-10T13:46:49;7.40;;;0.40;;
24485;SDS011;13449;49.374;8.584;2023-05-10T13:49:16;1.83;;;0.40;;
24485;SDS011;13449;49.374;8.584;2023-05-10T13:51:43;3.42;;;0.50;;
24485;SDS011;13449;49.374;8.584;2023-05-10T13:54:12;0.77;;;0.30;;
24485;SDS011;13449;49.374;8.584;2023-05-10T13:56:39;1.55;;;0.40;;
24485;SDS011;13449;49.374;8.584;2023-05-10T13:59:07;3.60;;;0.43;;
24485;SDS011;13449;49.374;8.584;2023-05-10T14:01:33;1.70;;;0.32;;
24485;SDS011;13449;49.374;8.584;2023-05-10T14:04:05;4.13;;;1.13;;
24485;SDS011;13449;49.374;8.584;2023-05-10T14:06:33;0.68;;;0.20;;
24485;SDS011;13449;49.374;8.584;2023-05-10T14:09:00;7.38;;;0.60;;
24485;SDS011;13449;49.374;8.584;2023-05-10T14:11:29;6.80;;;0.40;;
24485;SDS011;13449;49.374;8.584;2023-05-10T14:13:55;2.90;;;0.38;;
24485;SDS011;13449;49.374;8.584;2023-05-10T14:16:22;4.60;;;0.22;;
24485;SDS011;13449;49.374;8.584;2023-05-10T14:18:48;0.95;;;0.30;;
24485;SDS011;13449;49.374;8.584;2023-05-10T14:21:15;3.20;;;0.30;;
24485;SDS011;13449;49.374;8.584;2023-05-10T14:23:44;0.28;;;0.28;;
24485;SDS011;13449;49.374;8.584;2023-05-10T14:26:11;2.42;;;0.20;;
24485;SDS011;13449;49.374;8.584;2023-05-10T14:28:42;0.13;;;0.13;;
24485;SDS011;13449;49.374;8.584;2023-05-10T14:31:09;1.33;;;0.40;;
24485;SDS011;13449;49.374;8.584;2023-05-10T14:33:35;5.85;;;0.60;;
24485;SDS011;13449;49.374;8.584;2023-05-10T14:36:02;1.17;;;0.32;;
24485;SDS011;13449;49.374;8.584;2023-05-10T14:38:29;0.80;;;0.30;;
24485;SDS011;13449;49.374;8.584;2023-05-10T14:40:58;1.10;;;0.22;;
24485;SDS011;13449;49.374;8.584;2023-05-10T14:43:25;1.30;;;0.32;;
24485;SDS011;13449;49.374;8.584;2023-05-10T14:45:56;0.98;;;0.43;;
24485;SDS011;13449;49.374;8.584;2023-05-10T14:48:23;0.40;;;0.17;;
24485;SDS011;13449;49.374;8.584;2023-05-10T14:50:49;1.65;;;0.47;;
24485;SDS011;13449;49.374;8.584;2023-05-10T14:53:18;1.02;;;0.38;;
24485;SDS011;13449;49.374;8.584;2023-05-10T14:55:47;0.98;;;0.38;;
24485;SDS011;13449;49.374;8.584;2023-05-10T14:58:18;7.85;;;0.75;;
24485;SDS011;13449;49.374;8.584;2023-05-10T15:00:45;5.38;;;0.45;;
24485;SDS011;13449;49.374;8.584;2023-05-10T15:03:12;0.22;;;0.22;;
24485;SDS011;13449;49.374;8.584;2023-05-10T15:05:40;0.50;;;0.40;;
24485;SDS011;13449;49.374;8.584;2023-05-10T15:08:06;2.95;;;0.43;;
24485;SDS011;13449;49.374;8.584;2023-05-10T15:10:33;1.65;;;0.50;;
24485;SDS011;13449;49.374;8.584;2023-05-10T15:13:00;0.32;;;0.20;;
24485;SDS011;13449;49.374;8.584;2023-05-10T15:15:26;8.38;;;0.50;;
24485;SDS011;13449;49.374;8.584;2023-05-10T15:17:53;1.15;;;0.40;;
24485;SDS011;13449;49.374;8.584;2023-05-10T15:20:19;1.98;;;0.30;;
24485;SDS011;13449;49.374;8.584;2023-05-10T15:22:46;3.22;;;0.40;;
24485;SDS011;13449;49.374;8.584;2023-05-10T15:25:12;3.00;;;0.30;;
24485;SDS011;13449;49.374;8.584;2023-05-10T15:27:41;0.90;;;0.30;;